Time;durP1;ratioP1;P1;durP2;ratioP2;P2;SDS_P1;SDS_P2;PMS_P1;PMS_P2;Temp;Humidity;BMP_temperature;BMP_pressure;BME280_temperature;BME280_humidity;BME280_pressure;Samples;Min_cycle;Max_cycle;Signal;HPM_P1;HPM_P2
2023/09/13 00:01:39;;;;;;;3.40;0.85;;;;;;;17.46;100.00;101034.88;5049879;28;20508;-51
2023/09/13 00:04:05;;;;;;;3.47;0.40;;;;;;;17.52;100.00;101031.31;5060097;28;20624;-54
2023/09/13 00:06:30;;;;;;;1.00;0.10;;;;;;;17.48;100.00;101037.31;5058894;28;20242;-52
2023/09/13 00:08:55;;;;;;;5.20;0.70;;;;;;;17.44;100.00;101042.31;5050518;28;20492;-52
2023/09/13 00:11:20;;;;;;;0.57;0.30;;;;;;;17.40;100.00;101043.84;5057207;28;20093;-54
2023/09/13 00:13:46;;;;;;;0.15;0.00;;;;;;;17.35;100.00;101047.16;5051738;28;20032;-52
2023/09/13 00:16:11;;;;;;;2.70;0.38;;;;;;;17.36;100.00;101050.66;5052803;28;20243;-53
2023/09/13 00:18:37;;;;;;;3.10;0.20;;;;;;;17.16;100.00;101062.38;5051616;28;20036;-55
2023/09/13 00:21:02;;;;;;;3.42;0.20;;;;;;;16.99;100.00;101061.31;5057338;28;20092;-54
2023/09/13 00:23:27;;;;;;;0.60;0.57;;;;;;;16.93;100.00;101056.81;5049599;28;20031;-55
2023/09/13 00:25:53;;;;;;;4.07;0.52;;;;;;;17.03;100.00;101061.69;5051600;28;20151;-56
2023/09/13 00:28:18;;;;;;;1.52;0.20;;;;;;;17.08;100.00;101065.34;5053361;28;20106;-51
2023/09/13 00:30:43;;;;;;;1.20;0.55;;;;;;;17.09;100.00;101067.00;5049307;28;20071;-56
2023/09/13 00:33:09;;;;;;;2.40;0.80;;;;;;;17.14;100.00;101069.00;5052779;28;20036;-51
2023/09/13 00:35:35;;;;;;;0.77;0.55;;;;;;;17.16;100.00;101061.56;5053926;28;20066;-54
2023/09/13 00:38:00;;;;;;;2.45;0.35;;;;;;;16.98;100.00;101063.16;5055837;28;20040;-52
2023/09/13 00:40:25;;;;;;;0.85;0.20;;;;;;;17.07;100.00;101069.06;5051585;28;20068;-54
2023/09/13 00:42:51;;;;;;;0.82;0.82;;;;;;;17.10;100.00;101068.63;5056624;28;20032;-52
2023/09/13 00:45:16;;;;;;;1.65;0.03;;;;;;;17.00;100.00;101068.31;5053836;28;20199;-54
2023/09/13 00:47:43;;;;;;;2.72;0.45;;;;;;;16.98;100.00;101073.06;5062248;28;20493;-51
2023/09/13 00:50:13;;;;;;;2.55;0.68;;;;;;;16.95;100.00;101081.53;5055551;28;20044;-52
2023/09/13 00:52:39;;;;;;;1.52;0.10;;;;;;;17.07;100.00;101085.16;5052910;28;20091;-55
2023/09/13 00:55:06;;;;;;;0.95;0.32;;;;;;;16.97;100.00;101091.00;5059124;28;20036;-53
2023/09/13 00:57:32;;;;;;;3.88;0.57;;;;;;;16.96;100.00;101083.16;5047608;28;20078;-52
2023/09/13 00:59:58;;;;;;;5.80;1.10;;;;;;;17.11;100.00;101090.88;5045232;28;20025;-53
2023/09/13 01:02:23;;;;;;;1.92;0.50;;;;;;;17.08;100.00;101085.97;5053837;28;20044;-55
2023/09/13 01:04:49;;;;;;;2.58;0.20;;;;;;;17.03;100.00;101093.84;5047257;28;20029;-53
2023/09/13 01:07:15;;;;;;;2.30;0.30;;;;;;;17.13;100.00;101094.16;5055505;28;20111;-52
2023/09/13 01:09:42;;;;;;;2.33;0.28;;;;;;;17.08;100.00;101094.81;5055886;28;20040;-52
2023/09/13 01:12:07;;;;;;;0.60;0.10;;;;;;;17.06;100.00;101094.22;5055614;28;20074;-55
2023/09/13 01:14:33;;;;;;;2.85;0.55;;;;;;;17.20;100.00;101098.44;5047980;28;20032;-52
2023/09/13 01:17:20;;;;;;;4.47;0.40;;;;;;;17.21;100.00;101092.00;5052836;28;20370;-51
2023/09/13 01:20:07;;;;;;;4.03;0.65;;;;;;;17.29;100.00;101096.28;5055836;28;20589;-50
2023/09/13 01:22:43;;;;;;;4.72;0.73;;;;;;;17.18;100.00;101100.50;5053811;28;20564;-51
2023/09/13 01:25:27;;;;;;;1.95;1.77;;;;;;;17.10;100.00;101105.31;5051082;28;20037;-51
2023/09/13 01:28:11;;;;;;;3.75;0.40;;;;;;;17.15;100.00;101106.31;5047136;28;20578;-53
2023/09/13 01:30:38;;;;;;;3.13;0.73;;;;;;;17.13;100.00;101111.06;5049641;28;20058;-54
2023/09/13 01:33:04;;;;;;;2.85;1.05;;;;;;;17.18;100.00;101108.53;5052553;28;20036;-54
2023/09/13 01:35:29;;;;;;;5.43;1.30;;;;;;;17.21;100.00;101102.75;5054314;28;20071;-52
2023/09/13 01:37:54;;;;;;;0.75;0.43;;;;;;;17.14;100.00;101102.00;5051084;28;20556;-53
2023/09/13 01:40:29;;;;;;;1.95;0.73;;;;;;;17.02;100.00;101100.25;5049651;28;20055;-50
2023/09/13 01:42:59;;;;;;;9.27;0.60;;;;;;;17.16;100.00;101109.78;5057414;28;20033;-51
2023/09/13 01:45:25;;;;;;;2.08;0.10;;;;;;;17.13;100.00;101103.03;5046086;28;20505;-52
2023/09/13 01:47:51;;;;;;;0.75;0.32;;;;;;;17.10;100.00;101108.00;5057063;28;20033;-53
2023/09/13 01:50:17;;;;;;;2.13;0.20;;;;;;;17.18;100.00;101092.47;5054980;28;20244;-53
2023/09/13 01:52:42;;;;;;;4.72;0.55;;;;;;;17.24;100.00;101101.47;5051069;28;20040;-53
2023/09/13 01:55:08;;;;;;;2.88;1.13;;;;;;;17.14;100.00;101098.47;5048916;28;20644;-50
2023/09/13 01:57:34;;;;;;;9.65;0.60;;;;;;;16.99;100.00;101093.47;5051022;28;20522;-53
2023/09/13 01:59:59;;;;;;;1.38;0.28;;;;;;;16.84;100.00;101106.34;5052481;28;20393;-53
2023/09/13 02:02:24;;;;;;;1.45;0.22;;;;;;;16.85;100.00;101108.81;5056374;28;20039;-53
2023/09/13 02:04:50;;;;;;;3.00;0.20;;;;;;;16.84;100.00;101111.72;5052563;28;20549;-54
2023/09/13 02:07:16;;;;;;;1.92;0.88;;;;;;;16.84;100.00;101117.06;5054435;28;20539;-52
2023/09/13 02:09:42;;;;;;;3.88;1.15;;;;;;;16.79;100.00;101121.22;5051994;28;20111;-54
2023/09/13 02:12:12;;;;;;;0.65;0.32;;;;;;;16.74;100.00;101123.69;5047836;28;20021;-55
2023/09/13 02:14:38;;;;;;;3.97;0.88;;;;;;;16.68;100.00;101135.25;5050391;28;20039;-56
2023/09/13 02:17:04;;;;;;;4.20;0.50;;;;;;;16.76;100.00;101126.16;5056989;28;20438;-53
2023/09/13 02:19:29;;;;;;;2.92;0.40;;;;;;;16.75;100.00;101141.41;5053431;28;20125;-51
2023/09/13 02:21:54;;;;;;;9.48;0.47;;;;;;;16.91;100.00;101134.72;5056048;28;20094;-53
2023/09/13 02:24:20;;;;;;;2.63;0.32;;;;;;;17.05;100.00;101134.63;5049045;28;20056;-53
2023/09/13 02:26:45;;;;;;;7.47;0.63;;;;;;;17.17;100.00;101135.56;5055856;28;20024;-55
2023/09/13 02:29:10;;;;;;;2.28;0.20;;;;;;;17.19;100.00;101133.47;5049514;28;20040;-52
2023/09/13 02:31:36;;;;;;;3.10;0.22;;;;;;;17.32;100.00;101133.38;5060407;28;20048;-55
2023/09/13 02:34:02;;;;;;;3.85;0.98;;;;;;;17.31;100.00;101130.91;5048798;28;20043;-55
2023/09/13 02:36:28;;;;;;;2.20;0.38;;;;;;;17.27;100.00;101135.06;5053075;28;20033;-51
2023/09/13 02:38:54;;;;;;;2.95;0.85;;;;;;;17.44;100.00;101136.16;5053432;28;20074;-51
2023/09/13 02:41:19;;;;;;;5.72;1.70;;;;;;;17.49;100.00;101133.63;5055621;28;20524;-51
2023/09/13 02:43:45;;;;;;;1.48;0.40;;;;;;;17.33;100.00;101128.84;5051546;28;20028;-53
2023/09/13 02:46:10;;;;;;;7.38;1.40;;;;;;;17.32;100.00;101129.84;5047338;28;20474;-55
2023/09/13 02:48:36;;;;;;;2.75;0.52;;;;;;;17.48;100.00;101139.19;5056705;28;20123;-54
2023/09/13 02:51:02;;;;;;;1.25;0.43;;;;;;;17.45;100.00;101145.84;5052173;28;20033;-53
2023/09/13 02:53:28;;;;;;;3.35;0.57;;;;;;;17.35;100.00;101140.97;5055462;28;20040;-55
2023/09/13 02:56:03;;;;;;;3.40;0.40;;;;;;;17.36;100.00;101147.16;5052475;28;20024;-56
2023/09/13 02:58:28;;;;;;;3.05;0.40;;;;;;;17.38;100.00;101145.09;5052432;28;20048;-53
2023/09/13 03:00:54;;;;;;;5.57;1.38;;;;;;;17.40;100.00;101145.69;5052805;28;20216;-54
2023/09/13 03:03:19;;;;;;;0.98;0.32;;;;;;;17.44;100.00;101145.00;5043355;28;20087;-55
2023/09/13 03:05:44;;;;;;;4.07;0.50;;;;;;;17.60;100.00;101145.47;5057028;28;20025;-54
2023/09/13 03:08:10;;;;;;;4.28;0.20;;;;;;;17.63;100.00;101143.19;5050050;28;20490;-56
2023/09/13 03:10:37;;;;;;;3.85;0.25;;;;;;;17.61;100.00;101142.59;5055860;28;20161;-53
2023/09/13 03:13:02;;;;;;;4.05;0.50;;;;;;;17.53;100.00;101144.72;5061213;28;20036;-52
2023/09/13 03:15:32;;;;;;;4.13;0.40;;;;;;;17.45;100.00;101140.50;5052425;28;20033;-57
2023/09/13 03:17:57;;;;;;;2.70;0.13;;;;;;;17.56;100.00;101147.78;5054891;28;20040;-53
2023/09/13 03:20:23;;;;;;;3.75;0.93;;;;;;;17.49;100.00;101147.03;5056531;28;20028;-55
2023/09/13 03:22:48;;;;;;;9.20;1.48;;;;;;;17.58;100.00;101148.41;5057508;28;20330;-52
2023/09/13 03:25:13;;;;;;;6.65;0.45;;;;;;;17.64;100.00;101144.00;5055567;28;20116;-53
2023/09/13 03:27:39;;;;;;;1.40;0.73;;;;;;;17.72;100.00;101137.53;5056819;28;20657;-52
2023/09/13 03:30:05;;;;;;;6.15;0.10;;;;;;;17.84;100.00;101138.47;5054465;28;20036;-55
2023/09/13 03:32:30;;;;;;;1.52;0.30;;;;;;;17.78;100.00;101139.31;5056900;28;20036;-53
2023/09/13 03:34:56;;;;;;;2.78;0.20;;;;;;;17.71;100.00;101135.88;5059729;28;20121;-49
2023/09/13 03:37:21;;;;;;;2.00;0.30;;;;;;;17.58;100.00;101147.56;5052163;28;20047;-52
2023/09/13 03:39:46;;;;;;;4.15;0.35;;;;;;;17.55;100.00;101140.78;5058170;28;20034;-50
2023/09/13 03:42:12;;;;;;;0.68;0.10;;;;;;;17.48;100.00;101148.09;5055429;28;20032;-53
2023/09/13 03:44:37;;;;;;;5.78;0.50;;;;;;;17.48;100.00;101149.91;5046684;28;20040;-52
2023/09/13 03:47:03;;;;;;;4.55;0.22;;;;;;;17.49;100.00;101157.75;5052660;28;20112;-48
2023/09/13 03:49:28;;;;;;;1.70;0.30;;;;;;;17.51;100.00;101155.69;5049082;28;20509;-52
2023/09/13 03:51:54;;;;;;;3.97;0.25;;;;;;;17.53;100.00;101150.91;5056906;28;20091;-51
2023/09/13 03:54:19;;;;;;;1.02;0.08;;;;;;;17.52;100.00;101157.31;5057634;28;20376;-50
2023/09/13 03:56:44;;;;;;;0.30;0.28;;;;;;;17.52;100.00;101154.63;5056635;28;20021;-47
2023/09/13 03:59:10;;;;;;;2.38;0.50;;;;;;;17.47;100.00;101142.94;5052357;28;20086;-50
2023/09/13 04:01:35;;;;;;;4.20;0.35;;;;;;;17.28;100.00;101153.59;5054684;28;20037;-51
2023/09/13 04:04:01;;;;;;;4.88;2.03;;;;;;;17.25;100.00;101150.56;5050501;28;20196;-49
2023/09/13 04:06:26;;;;;;;2.03;0.90;;;;;;;17.13;100.00;101164.66;5048122;28;21069;-49
2023/09/13 04:08:52;;;;;;;3.17;1.15;;;;;;;17.10;100.00;101167.75;5056685;28;20233;-53
2023/09/13 04:11:17;;;;;;;2.38;0.75;;;;;;;17.12;100.00;101178.28;5049881;28;20028;-51
2023/09/13 04:13:42;;;;;;;3.78;1.38;;;;;;;16.98;100.00;101175.66;5051339;28;20033;-53
2023/09/13 04:16:13;;;;;;;2.15;0.35;;;;;;;17.10;100.00;101174.97;5054380;28;20024;-51
2023/09/13 04:18:39;;;;;;;2.33;0.45;;;;;;;17.20;100.00;101176.13;5059690;28;20071;-50
2023/09/13 04:21:04;;;;;;;5.88;0.88;;;;;;;17.23;100.00;101175.69;5057270;28;20033;-53
2023/09/13 04:23:30;;;;;;;4.38;0.30;;;;;;;17.21;100.00;101175.09;5058546;28;20063;-51
2023/09/13 04:25:55;;;;;;;6.78;1.25;;;;;;;17.00;100.00;101172.78;5056081;28;20465;-51
2023/09/13 04:28:20;;;;;;;3.95;1.08;;;;;;;17.14;100.00;101168.13;5046137;28;20036;-54
2023/09/13 04:30:46;;;;;;;2.92;0.80;;;;;;;17.05;100.00;101175.63;5056667;28;20025;-56
2023/09/13 04:33:11;;;;;;;2.08;0.20;;;;;;;17.21;100.00;101168.91;5057298;28;20040;-53
2023/09/13 04:35:36;;;;;;;5.28;0.95;;;;;;;17.17;100.00;101178.44;5053193;28;20576;-49
2023/09/13 04:38:02;;;;;;;3.38;0.35;;;;;;;17.11;100.00;101182.78;5050670;28;20048;-50
2023/09/13 04:40:28;;;;;;;6.55;0.73;;;;;;;17.16;100.00;101188.31;5054171;28;20058;-48
2023/09/13 04:43:05;;;;;;;2.22;0.28;;;;;;;17.14;100.00;101186.91;5056965;28;20048;-52
2023/09/13 04:45:30;;;;;;;7.13;1.95;;;;;;;17.19;100.00;101190.59;5048174;28;20492;-54
2023/09/13 04:47:56;;;;;;;9.95;1.00;;;;;;;17.29;100.00;101194.63;5050019;28;20036;-52
2023/09/13 04:50:21;;;;;;;4.20;0.52;;;;;;;17.37;100.00;101194.34;5052529;28;20068;-51
2023/09/13 04:52:46;;;;;;;2.30;0.40;;;;;;;17.36;100.00;101193.53;5056480;28;20033;-51
2023/09/13 04:55:11;;;;;;;2.65;0.55;;;;;;;17.28;100.00;101204.53;5050453;28;20040;-47
2023/09/13 04:57:37;;;;;;;3.67;0.60;;;;;;;17.23;100.00;101213.22;5057144;28;20086;-48
2023/09/13 05:00:07;;;;;;;4.68;0.70;;;;;;;17.23;100.00;101212.41;5053533;28;20028;-53
2023/09/13 05:02:33;;;;;;;2.90;0.98;;;;;;;17.08;100.00;101226.09;5051900;28;20102;-52
2023/09/13 05:04:58;;;;;;;8.57;0.70;;;;;;;17.13;100.00;101228.94;5054332;28;20481;-49
2023/09/13 05:07:23;;;;;;;2.88;0.77;;;;;;;17.04;100.00;101216.03;5049977;28;20424;-49
2023/09/13 05:09:48;;;;;;;0.80;0.43;;;;;;;17.08;100.00;101218.06;5052133;28;20033;-49
2023/09/13 05:12:14;;;;;;;2.92;0.32;;;;;;;17.10;100.00;101221.34;5047448;28;20422;-54
2023/09/13 05:14:42;;;;;;;1.33;1.00;;;;;;;16.93;100.00;101223.69;5051892;28;20476;-50
2023/09/13 05:17:08;;;;;;;1.85;0.75;;;;;;;16.70;100.00;101221.56;5058318;28;20024;-51
2023/09/13 05:19:33;;;;;;;5.63;0.90;;;;;;;16.68;100.00;101225.47;5051094;28;20515;-51
2023/09/13 05:21:58;;;;;;;2.97;0.88;;;;;;;16.53;100.00;101233.78;5055103;28;20116;-48
2023/09/13 05:24:23;;;;;;;2.95;0.40;;;;;;;16.52;100.00;101238.31;5048220;28;20664;-51
2023/09/13 05:26:50;;;;;;;5.95;0.60;;;;;;;16.48;100.00;101246.97;5050729;28;20407;-51
2023/09/13 05:29:16;;;;;;;3.03;1.40;;;;;;;16.34;100.00;101241.66;5056400;28;20497;-50
2023/09/13 05:31:41;;;;;;;1.45;0.47;;;;;;;16.34;100.00;101243.50;5048903;28;20048;-52
2023/09/13 05:34:06;;;;;;;1.85;0.57;;;;;;;16.25;100.00;101250.94;5057700;28;20028;-50
2023/09/13 05:36:32;;;;;;;4.63;1.00;;;;;;;16.18;100.00;101258.16;5057412;28;20037;-50
2023/09/13 05:38:57;;;;;;;5.97;1.20;;;;;;;16.21;100.00;101268.47;5051381;28;20043;-54
2023/09/13 05:41:22;;;;;;;4.40;0.98;;;;;;;16.09;100.00;101270.13;5048722;28;20044;-52
2023/09/13 05:43:48;;;;;;;1.45;0.50;;;;;;;16.09;100.00;101270.13;5056168;28;20028;-50
2023/09/13 05:46:15;;;;;;;0.63;0.25;;;;;;;16.11;100.00;101273.41;5046591;28;20166;-52
2023/09/13 05:48:41;;;;;;;2.10;1.00;;;;;;;16.19;100.00;101280.41;5047001;28;20041;-49
2023/09/13 05:51:06;;;;;;;6.63;1.35;;;;;;;16.26;100.00;101283.88;5044025;28;20028;-53
2023/09/13 05:53:31;;;;;;;3.63;0.73;;;;;;;16.24;100.00;101289.44;5053995;28;20449;-50
2023/09/13 05:55:57;;;;;;;3.30;0.17;;;;;;;16.23;100.00;101295.00;5049434;28;20366;-52
2023/09/13 05:58:23;;;;;;;4.70;0.93;;;;;;;16.14;100.00;101305.09;5049198;28;20057;-49
2023/09/13 06:00:50;;;;;;;2.30;0.93;;;;;;;16.19;100.00;101307.97;5055124;28;20822;-50
2023/09/13 06:03:16;;;;;;;4.80;1.55;;;;;;;16.22;100.00;101310.22;5063655;28;20033;-51
2023/09/13 06:05:42;;;;;;;6.35;0.85;;;;;;;16.13;100.00;101325.69;5053553;28;20673;-49
2023/09/13 06:08:08;;;;;;;3.72;0.75;;;;;;;16.19;100.00;101320.53;5050623;28;20132;-50
2023/09/13 06:10:33;;;;;;;4.63;1.05;;;;;;;16.32;100.00;101329.34;5058953;28;20119;-54
2023/09/13 06:12:58;;;;;;;5.47;1.10;;;;;;;16.27;100.00;101331.84;5056688;28;20068;-50
2023/09/13 06:15:24;;;;;;;3.97;0.40;;;;;;;16.41;100.00;101331.81;5058355;28;20116;-54
2023/09/13 06:17:51;;;;;;;7.78;0.55;;;;;;;16.35;100.00;101328.94;5052153;28;20111;-53
2023/09/13 06:20:17;;;;;;;1.48;1.33;;;;;;;16.39;100.00;101332.00;5055266;28;20025;-51
2023/09/13 06:22:42;;;;;;;4.57;0.95;;;;;;;16.47;100.00;101337.16;5053008;28;20033;-53
2023/09/13 06:25:08;;;;;;;6.60;0.90;;;;;;;16.42;100.00;101344.16;5055224;28;20057;-50
2023/09/13 06:27:33;;;;;;;6.40;0.80;;;;;;;16.39;100.00;101340.03;5055064;28;20048;-51
2023/09/13 06:29:58;;;;;;;3.05;0.63;;;;;;;16.55;100.00;101347.63;5066266;28;20350;-53
2023/09/13 06:32:24;;;;;;;4.07;0.75;;;;;;;16.58;100.00;101357.94;5058182;28;20050;-51
2023/09/13 06:34:53;;;;;;;2.17;0.30;;;;;;;16.64;100.00;101358.94;5053407;28;20024;-53
2023/09/13 06:37:18;;;;;;;4.03;1.17;;;;;;;16.65;100.00;101360.59;5059018;28;20145;-51
2023/09/13 06:39:44;;;;;;;2.30;0.30;;;;;;;16.78;100.00;101373.16;5054386;28;20047;-51
2023/09/13 06:42:09;;;;;;;5.35;0.43;;;;;;;16.69;100.00;101377.88;5061728;28;20177;-54
2023/09/13 06:44:34;;;;;;;8.00;0.50;;;;;;;16.70;100.00;101378.69;5060042;28;20143;-50
2023/09/13 06:47:00;;;;;;;0.90;0.47;;;;;;;16.71;100.00;101377.69;5050318;28;20029;-50
2023/09/13 06:49:25;;;;;;;2.72;0.40;;;;;;;16.71;100.00;101383.84;5050199;28;20028;-52
2023/09/13 06:51:51;;;;;;;2.08;0.68;;;;;;;16.79;100.00;101380.97;5049509;28;20474;-48
2023/09/13 06:54:18;;;;;;;3.20;0.82;;;;;;;16.71;100.00;101383.84;5059475;28;20043;-53
2023/09/13 06:56:44;;;;;;;4.20;1.08;;;;;;;16.75;100.00;101384.25;5052988;28;20336;-54
2023/09/13 06:59:09;;;;;;;1.75;0.60;;;;;;;16.93;100.00;101379.06;5048339;28;20087;-49
2023/09/13 07:01:34;;;;;;;3.38;0.77;;;;;;;16.97;100.00;101382.16;5054875;28;20029;-51
2023/09/13 07:04:00;;;;;;;3.20;1.02;;;;;;;16.88;100.00;101381.59;5049326;28;20532;-50
2023/09/13 07:06:25;;;;;;;4.35;1.77;;;;;;;16.94;100.00;101380.72;5057132;28;20025;-48
2023/09/13 07:08:51;;;;;;;1.58;0.60;;;;;;;17.14;100.00;101377.97;5053931;28;20119;-53
2023/09/13 07:11:16;;;;;;;2.83;0.52;;;;;;;17.47;100.00;101385.03;5047245;28;20033;-49
2023/09/13 07:13:42;;;;;;;11.10;1.52;;;;;;;17.50;100.00;101379.22;5060602;28;20393;-52
2023/09/13 07:16:07;;;;;;;3.15;0.63;;;;;;;17.35;100.00;101378.72;5054769;28;20032;-50
2023/09/13 07:18:33;;;;;;;1.35;0.38;;;;;;;17.21;100.00;101365.34;5060239;28;20038;-49
2023/09/13 07:20:58;;;;;;;6.35;0.88;;;;;;;17.18;100.00;101373.81;5060919;28;20036;-52
2023/09/13 07:23:23;;;;;;;10.68;1.35;;;;;;;17.10;100.00;101381.28;5060073;28;20032;-51
2023/09/13 07:25:49;;;;;;;1.95;0.70;;;;;;;17.21;100.00;101370.72;5053006;28;20039;-51
2023/09/13 07:28:15;;;;;;;7.03;0.75;;;;;;;17.28;100.00;101377.91;5052554;28;20520;-51
2023/09/13 07:30:40;;;;;;;3.03;0.95;;;;;;;17.25;100.00;101381.03;5032308;28;20031;-54
2023/09/13 07:33:06;;;;;;;4.47;0.52;;;;;;;17.53;100.00;101384.19;5029480;28;20224;-54
2023/09/13 07:35:31;;;;;;;2.08;1.05;;;;;;;17.54;100.00;101383.13;5044993;28;20032;-51
2023/09/13 07:37:56;;;;;;;1.35;0.50;;;;;;;17.69;100.00;101384.72;5043078;28;20039;-53
2023/09/13 07:40:22;;;;;;;3.00;0.63;;;;;;;17.86;100.00;101392.06;5044843;28;20083;-56
2023/09/13 07:42:47;;;;;;;4.68;0.98;;;;;;;17.69;100.00;101392.75;5047180;28;20028;-52
2023/09/13 07:45:12;;;;;;;1.75;0.43;;;;;;;17.98;100.00;101394.03;5047149;28;20033;-55
2023/09/13 07:47:38;;;;;;;2.92;0.70;;;;;;;17.92;100.00;101393.03;5048109;28;20123;-53
2023/09/13 07:50:03;;;;;;;3.72;0.90;;;;;;;17.86;100.00;101393.88;5040448;28;20032;-51
2023/09/13 07:52:29;;;;;;;3.95;0.50;;;;;;;17.94;100.00;101399.00;5047484;28;20081;-49
2023/09/13 07:54:54;;;;;;;4.35;1.25;;;;;;;17.87;100.00;101401.72;5045783;28;20445;-49
2023/09/13 07:57:19;;;;;;;3.40;0.60;;;;;;;17.86;100.00;101400.09;5047913;28;20040;-51
2023/09/13 07:59:44;;;;;;;2.53;0.60;;;;;;;18.01;100.00;101402.44;5046301;28;20035;-51
2023/09/13 08:02:10;;;;;;;1.65;0.20;;;;;;;18.24;100.00;101401.84;5042484;28;20117;-51
2023/09/13 08:04:35;;;;;;;5.03;1.30;;;;;;;18.03;100.00;101404.94;5054499;28;20486;-50
2023/09/13 08:07:02;;;;;;;2.38;0.80;;;;;;;18.16;100.00;101395.94;5052768;28;20074;-52
2023/09/13 08:09:27;;;;;;;5.63;0.90;;;;;;;18.19;100.00;101400.88;5053154;28;20041;-54
2023/09/13 08:11:53;;;;;;;4.28;1.00;;;;;;;18.26;100.00;101398.97;5055542;28;20028;-50
2023/09/13 08:14:19;;;;;;;4.28;1.50;;;;;;;18.62;100.00;101400.09;5047740;28;20051;-50
2023/09/13 08:16:45;;;;;;;2.92;0.60;;;;;;;18.79;100.00;101408.41;5048982;28;20029;-55
2023/09/13 08:19:11;;;;;;;2.60;0.75;;;;;;;18.77;100.00;101394.34;5044692;28;20071;-52
2023/09/13 08:21:36;;;;;;;8.90;1.27;;;;;;;18.57;100.00;101416.03;5051229;28;20494;-56
2023/09/13 08:24:03;;;;;;;2.13;0.40;;;;;;;18.45;100.00;101407.88;5053234;28;20034;-51
2023/09/13 08:26:30;;;;;;;10.45;0.68;;;;;;;18.45;100.00;101416.75;5052831;28;20097;-50
2023/09/13 08:28:55;;;;;;;1.77;0.17;;;;;;;18.42;100.00;101419.06;5052922;28;20028;-54
2023/09/13 08:31:24;;;;;;;5.72;0.55;;;;;;;18.55;100.00;101412.75;5049688;28;20071;-52
2023/09/13 08:33:50;;;;;;;6.10;0.80;;;;;;;18.49;100.00;101417.16;5057801;28;20048;-52
2023/09/13 08:36:17;;;;;;;2.42;0.22;;;;;;;18.60;100.00;101426.34;5053050;28;20032;-53
2023/09/13 08:38:42;;;;;;;2.10;0.70;;;;;;;18.75;100.00;101424.16;5064168;28;20025;-53
2023/09/13 08:41:08;;;;;;;1.45;0.57;;;;;;;19.05;100.00;101423.41;5052573;28;20085;-51
2023/09/13 08:43:33;;;;;;;5.18;0.50;;;;;;;19.09;100.00;101432.69;5043586;28;20820;-54
2023/09/13 08:46:00;;;;;;;3.75;0.57;;;;;;;19.45;100.00;101433.69;5049067;28;20638;-53
2023/09/13 08:48:26;;;;;;;3.78;0.85;;;;;;;19.46;100.00;101428.06;5054420;28;20029;-50
2023/09/13 08:50:52;;;;;;;7.93;0.70;;;;;;;19.64;100.00;101429.91;5048093;28;20059;-52
2023/09/13 08:53:19;;;;;;;0.80;0.25;;;;;;;20.22;100.00;101433.84;5048888;28;20032;-54
2023/09/13 08:55:46;;;;;;;10.77;0.85;;;;;;;20.22;100.00;101433.84;5047908;28;20601;-53
2023/09/13 08:58:12;;;;;;;0.90;0.22;;;;;;;20.31;100.00;101442.38;5052889;28;20028;-50
2023/09/13 09:00:41;;;;;;;2.00;0.52;;;;;;;20.35;100.00;101440.88;5046833;28;20035;-51
2023/09/13 09:03:11;;;;;;;2.78;0.70;;;;;;;20.30;100.00;101438.06;5039650;28;20024;-51
2023/09/13 09:05:37;;;;;;;10.88;1.08;;;;;;;20.45;100.00;101441.94;5050454;28;20162;-53
2023/09/13 09:08:04;;;;;;;5.70;0.38;;;;;;;20.42;100.00;101436.19;5044463;28;20067;-53
2023/09/13 09:10:30;;;;;;;2.80;1.67;;;;;;;17.84;100.00;101461.19;5051499;28;20032;-50
2023/09/13 09:12:58;;;;;;;2.53;0.45;;;;;;;17.13;100.00;101472.78;5054092;28;20273;-53
2023/09/13 09:15:25;;;;;;;2.53;0.40;;;;;;;16.94;100.00;101469.13;5050910;28;20453;-49
2023/09/13 09:17:52;;;;;;;2.38;0.60;;;;;;;17.20;100.00;101476.28;5052685;28;20035;-55
2023/09/13 09:20:19;;;;;;;3.15;0.50;;;;;;;17.25;100.00;101477.50;5043833;28;20031;-53
2023/09/13 09:22:45;;;;;;;1.67;0.82;;;;;;;17.22;100.00;101462.69;5055538;28;20032;-52
2023/09/13 09:25:11;;;;;;;5.32;0.80;;;;;;;17.38;100.00;101475.59;5053316;28;20058;-53
2023/09/13 09:27:38;;;;;;;1.40;0.63;;;;;;;17.42;100.00;101467.94;5051822;28;20040;-53
2023/09/13 09:30:07;;;;;;;2.65;0.65;;;;;;;17.82;100.00;101473.16;5051275;28;20064;-56
2023/09/13 09:32:36;;;;;;;2.63;0.57;;;;;;;17.93;100.00;101467.09;5049419;28;20393;-57
2023/09/13 09:35:04;;;;;;;3.15;0.77;;;;;;;17.88;100.00;101467.75;5055357;28;20039;-54
2023/09/13 09:37:32;;;;;;;8.15;1.17;;;;;;;18.11;100.00;101466.38;5056909;28;20505;-54
2023/09/13 09:39:58;;;;;;;3.10;1.17;;;;;;;18.31;100.00;101456.31;5056918;28;20519;-53
2023/09/13 09:42:24;;;;;;;1.85;0.55;;;;;;;18.48;100.00;101448.56;5061477;28;20041;-54
2023/09/13 09:44:51;;;;;;;6.97;0.85;;;;;;;18.60;100.00;101445.13;5061355;28;20412;-52
2023/09/13 09:47:16;;;;;;;2.33;0.50;;;;;;;18.76;100.00;101447.28;5056134;28;20111;-51
2023/09/13 09:49:44;;;;;;;3.15;0.60;;;;;;;18.82;100.00;101453.63;5055076;28;20404;-55
2023/09/13 09:52:10;;;;;;;4.25;0.75;;;;;;;18.67;100.00;101453.97;5052128;28;20028;-54
2023/09/13 09:54:39;;;;;;;3.97;0.90;;;;;;;18.84;100.00;101449.66;5060055;28;20479;-56
2023/09/13 09:57:05;;;;;;;2.60;1.08;;;;;;;18.99;100.00;101448.50;5052940;28;20123;-55
2023/09/13 09:59:32;;;;;;;1.23;0.52;;;;;;;18.83;100.00;101448.03;5057691;28;21574;-51
2023/09/13 10:01:58;;;;;;;7.53;0.40;;;;;;;18.89;100.00;101459.75;5054200;28;20040;-56
2023/09/13 10:04:24;;;;;;;1.67;0.50;;;;;;;19.04;100.00;101454.03;5056466;28;20515;-55
2023/09/13 10:06:58;;;;;;;5.18;0.55;;;;;;;19.17;100.00;101451.19;5061011;28;20111;-56
2023/09/13 10:09:23;;;;;;;2.70;0.60;;;;;;;19.10;100.00;101458.50;5051612;28;20032;-52
2023/09/13 10:12:01;;;;;;;2.00;0.82;;;;;;;19.54;100.00;101453.81;5054468;28;20074;-50
2023/09/13 10:14:27;;;;;;;2.22;0.52;;;;;;;19.76;100.00;101441.56;5052995;28;20032;-54
2023/09/13 10:16:54;;;;;;;3.13;0.43;;;;;;;19.86;100.00;101432.94;5060362;28;20043;-52
2023/09/13 10:19:22;;;;;;;2.08;1.23;;;;;;;19.79;100.00;101443.78;5063883;28;20043;-56
2023/09/13 10:21:50;;;;;;;2.97;1.55;;;;;;;19.55;100.00;101445.53;5051573;28;20033;-55
2023/09/13 10:24:18;;;;;;;2.17;0.50;;;;;;;19.63;100.00;101440.91;5059585;28;20437;-55
2023/09/13 10:26:45;;;;;;;2.72;0.63;;;;;;;19.33;100.00;101442.50;5051564;28;20045;-54
2023/09/13 10:29:16;;;;;;;1.50;0.57;;;;;;;19.23;100.00;101436.03;5051087;28;20044;-52
2023/09/13 10:31:46;;;;;;;2.55;0.43;;;;;;;19.59;100.00;101435.13;5058678;28;20058;-54
2023/09/13 10:34:18;;;;;;;4.72;0.30;;;;;;;19.48;100.00;101436.72;5057201;28;20044;-55
2023/09/13 10:36:50;;;;;;;2.55;1.15;;;;;;;19.72;100.00;101445.78;5060443;28;20036;-55
2023/09/13 10:39:23;;;;;;;3.53;0.43;;;;;;;20.34;100.00;101440.06;5058453;28;20031;-52
2023/09/13 10:42:02;;;;;;;2.00;0.45;;;;;;;20.53;100.00;101446.16;5061092;28;20501;-51
2023/09/13 10:44:28;;;;;;;2.75;0.60;;;;;;;20.53;100.00;101437.28;5057684;28;20036;-55
2023/09/13 10:46:55;;;;;;;1.75;0.60;;;;;;;20.76;100.00;101439.19;5053457;28;20853;-53
2023/09/13 10:49:20;;;;;;;3.45;0.47;;;;;;;20.68;100.00;101433.06;5053980;28;20403;-53
2023/09/13 10:51:47;;;;;;;1.58;0.45;;;;;;;20.49;100.00;101445.78;5052671;28;20033;-55
2023/09/13 10:54:14;;;;;;;1.33;0.40;;;;;;;20.47;100.00;101447.94;5051805;28;20029;-52
2023/09/13 10:56:40;;;;;;;1.75;0.40;;;;;;;20.14;100.00;101437.69;5056254;28;20035;-52
2023/09/13 10:59:06;;;;;;;1.05;0.45;;;;;;;20.14;100.00;101445.78;5049714;28;20357;-52
2023/09/13 11:01:33;;;;;;;1.90;0.75;;;;;;;19.95;100.00;101442.31;5056438;28;20041;-57
2023/09/13 11:03:58;;;;;;;7.50;1.35;;;;;;;19.58;100.00;101452.34;5050183;28;20615;-52
2023/09/13 11:06:26;;;;;;;2.15;0.35;;;;;;;19.37;100.00;101457.16;5046690;28;20036;-51
2023/09/13 11:08:52;;;;;;;4.07;1.60;;;;;;;19.46;100.00;101462.22;5052250;28;20040;-51
2023/09/13 11:11:21;;;;;;;3.78;0.88;;;;;;;20.04;100.00;101454.41;5049879;28;20044;-54
2023/09/13 11:13:52;;;;;;;0.90;0.13;;;;;;;20.84;100.00;101446.91;5057953;28;20033;-54